sensor_id;sensor_type;location;lat;lon;timestamp;temperature;humidity
52575;DHT22;38468;48.114;-1.684;2023-03-01T00:00:25;3.10;74.60
52575;DHT22;38468;48.114;-1.684;2023-03-01T00:02:25;3.10;74.50
52575;DHT22;38468;48.114;-1.684;2023-03-01T00:04:26;3.00;74.50
52575;DHT22;38468;48.114;-1.684;2023-03-01T00:06:28;3.10;74.50
52575;DHT22;38468;48.114;-1.684;2023-03-01T00:08:29;3.10;74.30
52575;DHT22;38468;48.114;-1.684;2023-03-01T00:10:30;3.10;74.40
52575;DHT22;38468;48.114;-1.684;2023-03-01T00:12:31;2.90;74.10
52575;DHT22;38468;48.114;-1.684;2023-03-01T00:14:32;2.90;74.30
52575;DHT22;38468;48.114;-1.684;2023-03-01T00:16:38;2.90;74.60
52575;DHT22;38468;48.114;-1.684;2023-03-01T00:18:39;2.90;74.40
52575;DHT22;38468;48.114;-1.684;2023-03-01T00:20:40;2.90;74.40
52575;DHT22;38468;48.114;-1.684;2023-03-01T00:22:41;2.90;74.30
52575;DHT22;38468;48.114;-1.684;2023-03-01T00:24:41;2.70;74.30
52575;DHT22;38468;48.114;-1.684;2023-03-01T00:26:42;2.80;74.40
52575;DHT22;38468;48.114;-1.684;2023-03-01T00:28:43;2.70;74.10
52575;DHT22;38468;48.114;-1.684;2023-03-01T00:30:44;2.80;74.10
52575;DHT22;38468;48.114;-1.684;2023-03-01T00:32:44;2.70;74.10
52575;DHT22;38468;48.114;-1.684;2023-03-01T00:34:45;2.70;74.00
52575;DHT22;38468;48.114;-1.684;2023-03-01T00:36:57;2.70;73.90
52575;DHT22;38468;48.114;-1.684;2023-03-01T00:39:07;2.60;74.20
52575;DHT22;38468;48.114;-1.684;2023-03-01T00:41:13;2.70;74.10
52575;DHT22;38468;48.114;-1.684;2023-03-01T00:43:14;2.60;73.70
52575;DHT22;38468;48.114;-1.684;2023-03-01T00:45:15;2.60;73.80
52575;DHT22;38468;48.114;-1.684;2023-03-01T00:47:15;2.60;73.80
52575;DHT22;38468;48.114;-1.684;2023-03-01T00:49:16;2.60;74.00
52575;DHT22;38468;48.114;-1.684;2023-03-01T00:51:23;2.60;73.90
52575;DHT22;38468;48.114;-1.684;2023-03-01T00:53:24;2.60;73.80
52575;DHT22;38468;48.114;-1.684;2023-03-01T00:55:25;2.60;73.70
52575;DHT22;38468;48.114;-1.684;2023-03-01T00:57:26;2.50;73.80
52575;DHT22;38468;48.114;-1.684;2023-03-01T00:59:26;2.50;74.10
52575;DHT22;38468;48.114;-1.684;2023-03-01T01:01:29;2.50;74.20
52575;DHT22;38468;48.114;-1.684;2023-03-01T01:03:30;2.50;74.30
52575;DHT22;38468;48.114;-1.684;2023-03-01T01:05:33;2.50;74.10
52575;DHT22;38468;48.114;-1.684;2023-03-01T01:07:34;2.50;74.20
52575;DHT22;38468;48.114;-1.684;2023-03-01T01:09:35;2.50;74.40
52575;DHT22;38468;48.114;-1.684;2023-03-01T01:11:36;2.50;74.40
52575;DHT22;38468;48.114;-1.684;2023-03-01T01:13:38;2.50;74.30
52575;DHT22;38468;48.114;-1.684;2023-03-01T01:15:39;2.50;74.30
52575;DHT22;38468;48.114;-1.684;2023-03-01T01:17:40;2.40;74.30
52575;DHT22;38468;48.114;-1.684;2023-03-01T01:19:41;2.40;74.30
52575;DHT22;38468;48.114;-1.684;2023-03-01T01:21:42;2.40;74.30
52575;DHT22;38468;48.114;-1.684;2023-03-01T01:23:47;2.40;74.30
52575;DHT22;38468;48.114;-1.684;2023-03-01T01:25:47;2.40;74.20
52575;DHT22;38468;48.114;-1.684;2023-03-01T01:27:48;2.30;74.20
52575;DHT22;38468;48.114;-1.684;2023-03-01T01:29:48;2.30;74.50
52575;DHT22;38468;48.114;-1.684;2023-03-01T01:31:49;2.30;74.50
52575;DHT22;38468;48.114;-1.684;2023-03-01T01:33:51;2.30;74.50
52575;DHT22;38468;48.114;-1.684;2023-03-01T01:35:51;2.20;74.50
52575;DHT22;38468;48.114;-1.684;2023-03-01T01:37:52;2.20;74.40
52575;DHT22;38468;48.114;-1.684;2023-03-01T01:39:53;2.30;74.50
52575;DHT22;38468;48.114;-1.684;2023-03-01T01:41:53;2.30;74.10
52575;DHT22;38468;48.114;-1.684;2023-03-01T01:44:24;2.20;74.40
52575;DHT22;38468;48.114;-1.684;2023-03-01T01:46:30;2.20;74.30
52575;DHT22;38468;48.114;-1.684;2023-03-01T01:48:39;2.10;74.20
52575;DHT22;38468;48.114;-1.684;2023-03-01T01:50:41;2.20;74.30
52575;DHT22;38468;48.114;-1.684;2023-03-01T01:52:45;2.10;74.30
52575;DHT22;38468;48.114;-1.684;2023-03-01T01:57:00;2.10;74.20
52575;DHT22;38468;48.114;-1.684;2023-03-01T01:59:02;2.10;74.30
52575;DHT22;38468;48.114;-1.684;2023-03-01T02:01:03;2.10;74.20
52575;DHT22;38468;48.114;-1.684;2023-03-01T02:03:14;2.10;74.00
52575;DHT22;38468;48.114;-1.684;2023-03-01T02:07:23;2.10;73.90
52575;DHT22;38468;48.114;-1.684;2023-03-01T02:09:25;2.10;73.80
52575;DHT22;38468;48.114;-1.684;2023-03-01T02:11:28;2.10;73.70
52575;DHT22;38468;48.114;-1.684;2023-03-01T02:13:34;2.00;73.60
52575;DHT22;38468;48.114;-1.684;2023-03-01T02:15:35;2.10;73.70
52575;DHT22;38468;48.114;-1.684;2023-03-01T02:17:37;2.00;73.50
52575;DHT22;38468;48.114;-1.684;2023-03-01T02:19:59;2.00;73.60
52575;DHT22;38468;48.114;-1.684;2023-03-01T02:24:41;2.10;73.00
52575;DHT22;38468;48.114;-1.684;2023-03-01T02:26:51;2.00;72.60
52575;DHT22;38468;48.114;-1.684;2023-03-01T02:28:55;1.90;72.70
52575;DHT22;38468;48.114;-1.684;2023-03-01T02:30:55;2.00;73.00
52575;DHT22;38468;48.114;-1.684;2023-03-01T02:33:15;1.90;72.70
52575;DHT22;38468;48.114;-1.684;2023-03-01T02:35:17;1.90;72.80
52575;DHT22;38468;48.114;-1.684;2023-03-01T02:37:20;1.80;72.50
52575;DHT22;38468;48.114;-1.684;2023-03-01T02:39:36;1.90;72.70
52575;DHT22;38468;48.114;-1.684;2023-03-01T02:41:39;1.90;72.80
52575;DHT22;38468;48.114;-1.684;2023-03-01T02:43:42;1.90;72.70
52575;DHT22;38468;48.114;-1.684;2023-03-01T02:45:52;2.00;72.60
52575;DHT22;38468;48.114;-1.684;2023-03-01T02:47:54;2.00;72.40
52575;DHT22;38468;48.114;-1.684;2023-03-01T02:49:55;1.90;72.30
52575;DHT22;38468;48.114;-1.684;2023-03-01T02:52:17;1.90;72.60
52575;DHT22;38468;48.114;-1.684;2023-03-01T02:54:29;1.90;72.60
52575;DHT22;38468;48.114;-1.684;2023-03-01T02:56:32;2.00;72.40
52575;DHT22;38468;48.114;-1.684;2023-03-01T02:58:32;1.90;72.40
52575;DHT22;38468;48.114;-1.684;2023-03-01T03:00:42;2.00;72.30
52575;DHT22;38468;48.114;-1.684;2023-03-01T03:02:51;2.00;72.20
52575;DHT22;38468;48.114;-1.684;2023-03-01T03:04:52;1.90;72.20
52575;DHT22;38468;48.114;-1.684;2023-03-01T03:06:53;1.90;72.30
52575;DHT22;38468;48.114;-1.684;2023-03-01T03:08:53;2.00;72.30
52575;DHT22;38468;48.114;-1.684;2023-03-01T03:10:54;1.90;71.90
52575;DHT22;38468;48.114;-1.684;2023-03-01T03:13:03;1.90;72.00
52575;DHT22;38468;48.114;-1.684;2023-03-01T03:15:06;1.90;72.00
52575;DHT22;38468;48.114;-1.684;2023-03-01T03:17:09;1.90;71.80
52575;DHT22;38468;48.114;-1.684;2023-03-01T03:19:10;1.80;72.10
52575;DHT22;38468;48.114;-1.684;2023-03-01T03:21:12;1.80;72.30
52575;DHT22;38468;48.114;-1.684;2023-03-01T03:23:13;1.80;72.10
52575;DHT22;38468;48.114;-1.684;2023-03-01T03:25:13;1.70;72.20
52575;DHT22;38468;48.114;-1.684;2023-03-01T03:27:14;1.60;72.30
52575;DHT22;38468;48.114;-1.684;2023-03-01T03:29:15;1.60;72.40
52575;DHT22;38468;48.114;-1.684;2023-03-01T03:31:16;1.60;72.60
52575;DHT22;38468;48.114;-1.684;2023-03-01T03:33:16;1.60;72.60
52575;DHT22;38468;48.114;-1.684;2023-03-01T03:35:21;1.70;72.50
52575;DHT22;38468;48.114;-1.684;2023-03-01T03:37:21;1.60;72.10
52575;DHT22;38468;48.114;-1.684;2023-03-01T03:39:41;1.60;72.30
52575;DHT22;38468;48.114;-1.684;2023-03-01T03:41:41;1.70;72.20
52575;DHT22;38468;48.114;-1.684;2023-03-01T03:43:42;1.60;72.10
52575;DHT22;38468;48.114;-1.684;2023-03-01T03:45:44;1.60;72.20
52575;DHT22;38468;48.114;-1.684;2023-03-01T03:47:45;1.50;72.10
52575;DHT22;38468;48.114;-1.684;2023-03-01T03:49:46;1.50;72.20
52575;DHT22;38468;48.114;-1.684;2023-03-01T03:51:46;1.50;72.30
52575;DHT22;38468;48.114;-1.684;2023-03-01T03:53:47;1.50;72.10
52575;DHT22;38468;48.114;-1.684;2023-03-01T03:55:48;1.50;71.90
52575;DHT22;38468;48.114;-1.684;2023-03-01T03:57:52;1.50;71.70
52575;DHT22;38468;48.114;-1.684;2023-03-01T03:59:54;1.50;71.90
52575;DHT22;38468;48.114;-1.684;2023-03-01T04:01:54;1.40;71.80
52575;DHT22;38468;48.114;-1.684;2023-03-01T04:03:56;1.40;71.70
52575;DHT22;38468;48.114;-1.684;2023-03-01T04:06:00;1.40;71.80
52575;DHT22;38468;48.114;-1.684;2023-03-01T04:08:01;1.40;72.00
52575;DHT22;38468;48.114;-1.684;2023-03-01T04:10:07;1.40;72.00
52575;DHT22;38468;48.114;-1.684;2023-03-01T04:12:08;1.40;71.80
52575;DHT22;38468;48.114;-1.684;2023-03-01T04:14:09;1.40;71.90
52575;DHT22;38468;48.114;-1.684;2023-03-01T04:16:10;1.40;71.70
52575;DHT22;38468;48.114;-1.684;2023-03-01T04:18:16;1.40;71.70
52575;DHT22;38468;48.114;-1.684;2023-03-01T04:20:19;1.40;71.50
52575;DHT22;38468;48.114;-1.684;2023-03-01T04:22:25;1.40;71.50
52575;DHT22;38468;48.114;-1.684;2023-03-01T04:24:29;1.40;71.50
52575;DHT22;38468;48.114;-1.684;2023-03-01T04:26:30;1.40;71.40
52575;DHT22;38468;48.114;-1.684;2023-03-01T04:28:41;1.40;71.50
52575;DHT22;38468;48.114;-1.684;2023-03-01T04:30:45;1.40;71.40
52575;DHT22;38468;48.114;-1.684;2023-03-01T04:32:45;1.30;71.30
52575;DHT22;38468;48.114;-1.684;2023-03-01T04:34:46;1.30;71.30
52575;DHT22;38468;48.114;-1.684;2023-03-01T04:36:48;1.40;71.30
52575;DHT22;38468;48.114;-1.684;2023-03-01T04:38:49;1.40;71.20
52575;DHT22;38468;48.114;-1.684;2023-03-01T04:40:49;1.40;71.30
52575;DHT22;38468;48.114;-1.684;2023-03-01T04:42:51;1.40;71.10
52575;DHT22;38468;48.114;-1.684;2023-03-01T04:44:51;1.40;70.90
52575;DHT22;38468;48.114;-1.684;2023-03-01T04:46:52;1.40;71.00
52575;DHT22;38468;48.114;-1.684;2023-03-01T04:48:52;1.40;70.80
52575;DHT22;38468;48.114;-1.684;2023-03-01T04:50:53;1.40;70.70
52575;DHT22;38468;48.114;-1.684;2023-03-01T04:52:54;1.20;70.70
52575;DHT22;38468;48.114;-1.684;2023-03-01T04:54:58;1.30;70.90
52575;DHT22;38468;48.114;-1.684;2023-03-01T04:57:00;1.30;70.90
52575;DHT22;38468;48.114;-1.684;2023-03-01T04:59:00;1.30;70.90
52575;DHT22;38468;48.114;-1.684;2023-03-01T05:01:01;1.30;70.90
52575;DHT22;38468;48.114;-1.684;2023-03-01T05:03:02;1.30;70.80
52575;DHT22;38468;48.114;-1.684;2023-03-01T05:05:02;1.30;70.80
52575;DHT22;38468;48.114;-1.684;2023-03-01T05:07:03;1.30;70.60
52575;DHT22;38468;48.114;-1.684;2023-03-01T05:09:04;1.30;70.60
52575;DHT22;38468;48.114;-1.684;2023-03-01T05:11:04;1.20;70.80
52575;DHT22;38468;48.114;-1.684;2023-03-01T05:13:05;1.20;70.80
52575;DHT22;38468;48.114;-1.684;2023-03-01T05:15:07;1.20;70.60
52575;DHT22;38468;48.114;-1.684;2023-03-01T05:17:08;1.20;70.80
52575;DHT22;38468;48.114;-1.684;2023-03-01T05:19:08;1.20;70.70
52575;DHT22;38468;48.114;-1.684;2023-03-01T05:21:16;1.20;70.80
52575;DHT22;38468;48.114;-1.684;2023-03-01T05:23:17;1.20;70.70
52575;DHT22;38468;48.114;-1.684;2023-03-01T05:25:18;1.20;70.70
52575;DHT22;38468;48.114;-1.684;2023-03-01T05:27:19;1.20;70.50
52575;DHT22;38468;48.114;-1.684;2023-03-01T05:29:23;1.20;70.60
52575;DHT22;38468;48.114;-1.684;2023-03-01T05:31:27;1.20;70.70
52575;DHT22;38468;48.114;-1.684;2023-03-01T05:33:28;1.30;70.50
52575;DHT22;38468;48.114;-1.684;2023-03-01T05:35:29;1.20;70.20
52575;DHT22;38468;48.114;-1.684;2023-03-01T05:37:32;1.20;70.20
52575;DHT22;38468;48.114;-1.684;2023-03-01T05:39:33;1.30;70.40
52575;DHT22;38468;48.114;-1.684;2023-03-01T05:41:34;1.30;70.20
52575;DHT22;38468;48.114;-1.684;2023-03-01T05:43:34;1.40;70.00
52575;DHT22;38468;48.114;-1.684;2023-03-01T05:45:37;1.20;69.60
52575;DHT22;38468;48.114;-1.684;2023-03-01T05:47:38;1.20;70.00
52575;DHT22;38468;48.114;-1.684;2023-03-01T05:49:43;1.20;70.10
52575;DHT22;38468;48.114;-1.684;2023-03-01T05:51:48;1.30;70.20
52575;DHT22;38468;48.114;-1.684;2023-03-01T05:53:49;1.20;70.20
52575;DHT22;38468;48.114;-1.684;2023-03-01T05:55:50;1.10;70.20
52575;DHT22;38468;48.114;-1.684;2023-03-01T05:57:51;1.20;70.30
52575;DHT22;38468;48.114;-1.684;2023-03-01T05:59:52;1.20;70.10
52575;DHT22;38468;48.114;-1.684;2023-03-01T06:01:53;1.20;70.10
52575;DHT22;38468;48.114;-1.684;2023-03-01T06:03:53;1.20;70.00
52575;DHT22;38468;48.114;-1.684;2023-03-01T06:05:57;1.10;70.00
52575;DHT22;38468;48.114;-1.684;2023-03-01T06:07:59;1.20;70.20
52575;DHT22;38468;48.114;-1.684;2023-03-01T06:10:00;1.20;69.80
52575;DHT22;38468;48.114;-1.684;2023-03-01T06:12:01;1.10;69.60
52575;DHT22;38468;48.114;-1.684;2023-03-01T06:14:02;1.20;69.60
52575;DHT22;38468;48.114;-1.684;2023-03-01T06:16:06;1.10;69.40
52575;DHT22;38468;48.114;-1.684;2023-03-01T06:18:08;1.10;69.60
52575;DHT22;38468;48.114;-1.684;2023-03-01T06:20:20;1.10;69.90
52575;DHT22;38468;48.114;-1.684;2023-03-01T06:22:21;1.10;69.90
52575;DHT22;38468;48.114;-1.684;2023-03-01T06:24:21;1.00;69.40
52575;DHT22;38468;48.114;-1.684;2023-03-01T06:26:22;1.00;69.80
52575;DHT22;38468;48.114;-1.684;2023-03-01T06:28:23;1.10;69.80
52575;DHT22;38468;48.114;-1.684;2023-03-01T06:30:25;1.10;69.90
52575;DHT22;38468;48.114;-1.684;2023-03-01T06:32:26;1.10;69.60
52575;DHT22;38468;48.114;-1.684;2023-03-01T06:34:26;1.10;69.60
52575;DHT22;38468;48.114;-1.684;2023-03-01T06:36:27;1.20;69.50
52575;DHT22;38468;48.114;-1.684;2023-03-01T06:38:28;1.20;69.60
52575;DHT22;38468;48.114;-1.684;2023-03-01T06:40:29;1.30;69.70
52575;DHT22;38468;48.114;-1.684;2023-03-01T06:42:31;1.30;69.40
52575;DHT22;38468;48.114;-1.684;2023-03-01T06:44:32;1.20;69.30
52575;DHT22;38468;48.114;-1.684;2023-03-01T06:46:32;1.20;69.60
52575;DHT22;38468;48.114;-1.684;2023-03-01T06:48:35;1.20;69.40
52575;DHT22;38468;48.114;-1.684;2023-03-01T06:50:35;1.10;69.20
52575;DHT22;38468;48.114;-1.684;2023-03-01T06:52:36;1.20;69.20
52575;DHT22;38468;48.114;-1.684;2023-03-01T06:54:37;1.20;69.20
52575;DHT22;38468;48.114;-1.684;2023-03-01T06:56:37;1.20;69.10
52575;DHT22;38468;48.114;-1.684;2023-03-01T06:58:38;1.10;69.00
52575;DHT22;38468;48.114;-1.684;2023-03-01T07:00:39;1.20;69.10
52575;DHT22;38468;48.114;-1.684;2023-03-01T07:02:41;1.20;68.90
52575;DHT22;38468;48.114;-1.684;2023-03-01T07:04:42;1.20;68.80
52575;DHT22;38468;48.114;-1.684;2023-03-01T07:06:42;1.10;68.80
52575;DHT22;38468;48.114;-1.684;2023-03-01T07:08:43;1.10;68.90
52575;DHT22;38468;48.114;-1.684;2023-03-01T07:10:44;1.10;68.90
52575;DHT22;38468;48.114;-1.684;2023-03-01T07:12:45;1.10;68.70
52575;DHT22;38468;48.114;-1.684;2023-03-01T07:14:46;1.00;68.50
52575;DHT22;38468;48.114;-1.684;2023-03-01T07:16:47;1.10;68.90
52575;DHT22;38468;48.114;-1.684;2023-03-01T07:18:48;1.10;68.80
52575;DHT22;38468;48.114;-1.684;2023-03-01T07:20:48;1.20;68.80
52575;DHT22;38468;48.114;-1.684;2023-03-01T07:22:49;1.10;68.80
52575;DHT22;38468;48.114;-1.684;2023-03-01T07:24:50;1.20;68.50
52575;DHT22;38468;48.114;-1.684;2023-03-01T07:26:51;1.20;68.50
52575;DHT22;38468;48.114;-1.684;2023-03-01T07:28:52;1.20;68.40
52575;DHT22;38468;48.114;-1.684;2023-03-01T07:30:53;1.10;68.20
52575;DHT22;38468;48.114;-1.684;2023-03-01T07:32:57;1.10;68.30
52575;DHT22;38468;48.114;-1.684;2023-03-01T07:34:58;1.20;68.10
52575;DHT22;38468;48.114;-1.684;2023-03-01T07:36:59;1.20;68.10
52575;DHT22;38468;48.114;-1.684;2023-03-01T07:38:59;1.30;68.20
52575;DHT22;38468;48.114;-1.684;2023-03-01T07:41:03;1.40;67.90
52575;DHT22;38468;48.114;-1.684;2023-03-01T07:43:04;1.50;67.90
52575;DHT22;38468;48.114;-1.684;2023-03-01T07:45:05;1.50;67.60
52575;DHT22;38468;48.114;-1.684;2023-03-01T07:47:06;2.40;66.90
52575;DHT22;38468;48.114;-1.684;2023-03-01T07:49:07;3.60;64.00
52575;DHT22;38468;48.114;-1.684;2023-03-01T07:51:07;4.10;62.00
52575;DHT22;38468;48.114;-1.684;2023-03-01T07:53:09;4.20;60.70
52575;DHT22;38468;48.114;-1.684;2023-03-01T07:55:10;4.30;60.70
52575;DHT22;38468;48.114;-1.684;2023-03-01T07:57:11;4.20;60.00
52575;DHT22;38468;48.114;-1.684;2023-03-01T07:59:12;4.20;60.30
52575;DHT22;38468;48.114;-1.684;2023-03-01T08:01:15;4.30;59.70
52575;DHT22;38468;48.114;-1.684;2023-03-01T08:03:15;4.50;59.80
52575;DHT22;38468;48.114;-1.684;2023-03-01T08:05:16;4.80;59.10
52575;DHT22;38468;48.114;-1.684;2023-03-01T08:07:17;5.40;57.60
52575;DHT22;38468;48.114;-1.684;2023-03-01T08:09:19;6.30;56.20
52575;DHT22;38468;48.114;-1.684;2023-03-01T08:11:19;7.20;53.90
52575;DHT22;38468;48.114;-1.684;2023-03-01T08:13:20;7.90;51.10
52575;DHT22;38468;48.114;-1.684;2023-03-01T08:15:22;8.70;49.10
52575;DHT22;38468;48.114;-1.684;2023-03-01T08:17:23;9.20;47.60
52575;DHT22;38468;48.114;-1.684;2023-03-01T08:19:24;9.10;46.20
52575;DHT22;38468;48.114;-1.684;2023-03-01T08:21:24;10.10;45.00
52575;DHT22;38468;48.114;-1.684;2023-03-01T08:23:25;10.60;42.90
52575;DHT22;38468;48.114;-1.684;2023-03-01T08:25:26;11.00;42.40
52575;DHT22;38468;48.114;-1.684;2023-03-01T08:27:26;11.30;41.00
52575;DHT22;38468;48.114;-1.684;2023-03-01T08:29:27;11.70;40.00
52575;DHT22;38468;48.114;-1.684;2023-03-01T08:31:36;12.10;39.40
52575;DHT22;38468;48.114;-1.684;2023-03-01T08:33:37;12.30;38.50
52575;DHT22;38468;48.114;-1.684;2023-03-01T08:35:38;12.90;38.10
52575;DHT22;38468;48.114;-1.684;2023-03-01T08:37:38;12.80;37.70
52575;DHT22;38468;48.114;-1.684;2023-03-01T08:39:39;13.10;37.00
52575;DHT22;38468;48.114;-1.684;2023-03-01T08:41:40;13.00;36.50
52575;DHT22;38468;48.114;-1.684;2023-03-01T08:43:41;12.90;37.20
52575;DHT22;38468;48.114;-1.684;2023-03-01T08:45:41;13.00;36.20
52575;DHT22;38468;48.114;-1.684;2023-03-01T08:47:42;13.30;36.90
52575;DHT22;38468;48.114;-1.684;2023-03-01T08:49:43;13.20;35.90
52575;DHT22;38468;48.114;-1.684;2023-03-01T08:51:45;13.60;36.10
52575;DHT22;38468;48.114;-1.684;2023-03-01T08:53:46;14.00;36.50
52575;DHT22;38468;48.114;-1.684;2023-03-01T08:55:47;14.00;35.20
52575;DHT22;38468;48.114;-1.684;2023-03-01T08:57:47;14.50;34.50
52575;DHT22;38468;48.114;-1.684;2023-03-01T08:59:48;14.70;34.20
52575;DHT22;38468;48.114;-1.684;2023-03-01T09:01:48;14.70;34.10
52575;DHT22;38468;48.114;-1.684;2023-03-01T09:03:49;14.70;33.80
52575;DHT22;38468;48.114;-1.684;2023-03-01T09:05:51;14.40;33.80
52575;DHT22;38468;48.114;-1.684;2023-03-01T09:07:51;14.90;34.30
52575;DHT22;38468;48.114;-1.684;2023-03-01T09:09:52;15.20;33.20
52575;DHT22;38468;48.114;-1.684;2023-03-01T09:11:53;15.50;32.60
52575;DHT22;38468;48.114;-1.684;2023-03-01T09:13:54;15.90;32.00
52575;DHT22;38468;48.114;-1.684;2023-03-01T09:15:55;16.00;32.10
52575;DHT22;38468;48.114;-1.684;2023-03-01T09:17:55;16.40;31.70
52575;DHT22;38468;48.114;-1.684;2023-03-01T09:19:56;16.10;31.40
52575;DHT22;38468;48.114;-1.684;2023-03-01T09:21:56;15.90;31.90
52575;DHT22;38468;48.114;-1.684;2023-03-01T09:23:58;16.00;31.60
52575;DHT22;38468;48.114;-1.684;2023-03-01T09:25:59;16.30;31.30
52575;DHT22;38468;48.114;-1.684;2023-03-01T09:28:00;16.60;31.40
52575;DHT22;38468;48.114;-1.684;2023-03-01T09:30:00;16.90;30.40
52575;DHT22;38468;48.114;-1.684;2023-03-01T09:32:01;16.30;30.70
52575;DHT22;38468;48.114;-1.684;2023-03-01T09:34:02;15.80;31.80
52575;DHT22;38468;48.114;-1.684;2023-03-01T09:36:05;16.40;31.10
52575;DHT22;38468;48.114;-1.684;2023-03-01T09:38:06;16.30;30.80
52575;DHT22;38468;48.114;-1.684;2023-03-01T09:40:09;16.80;30.20
52575;DHT22;38468;48.114;-1.684;2023-03-01T09:42:15;16.80;29.90
52575;DHT22;38468;48.114;-1.684;2023-03-01T09:46:27;16.20;30.20
52575;DHT22;38468;48.114;-1.684;2023-03-01T09:48:33;16.40;30.20
52575;DHT22;38468;48.114;-1.684;2023-03-01T09:50:40;16.60;29.50
52575;DHT22;38468;48.114;-1.684;2023-03-01T09:53:01;16.70;29.60
52575;DHT22;38468;48.114;-1.684;2023-03-01T09:55:09;16.70;29.70
52575;DHT22;38468;48.114;-1.684;2023-03-01T09:57:31;16.30;30.10
52575;DHT22;38468;48.114;-1.684;2023-03-01T10:04:09;16.10;30.00
52575;DHT22;38468;48.114;-1.684;2023-03-01T10:06:21;15.90;30.40
52575;DHT22;38468;48.114;-1.684;2023-03-01T10:08:28;15.90;30.40
52575;DHT22;38468;48.114;-1.684;2023-03-01T10:10:40;16.20;30.90
52575;DHT22;38468;48.114;-1.684;2023-03-01T10:12:45;16.10;30.40
52575;DHT22;38468;48.114;-1.684;2023-03-01T10:15:11;16.50;30.60
52575;DHT22;38468;48.114;-1.684;2023-03-01T10:17:41;16.70;29.50
52575;DHT22;38468;48.114;-1.684;2023-03-01T10:19:45;16.50;30.10
52575;DHT22;38468;48.114;-1.684;2023-03-01T10:21:46;16.50;29.80
52575;DHT22;38468;48.114;-1.684;2023-03-01T10:23:50;16.20;30.10
52575;DHT22;38468;48.114;-1.684;2023-03-01T10:26:22;16.50;30.30
52575;DHT22;38468;48.114;-1.684;2023-03-01T10:29:00;17.00;29.20
52575;DHT22;38468;48.114;-1.684;2023-03-01T10:31:02;16.80;30.00
52575;DHT22;38468;48.114;-1.684;2023-03-01T10:33:04;16.80;29.50
52575;DHT22;38468;48.114;-1.684;2023-03-01T10:35:17;16.40;30.50
52575;DHT22;38468;48.114;-1.684;2023-03-01T10:37:19;16.30;30.50
52575;DHT22;38468;48.114;-1.684;2023-03-01T10:39:24;16.80;29.60
52575;DHT22;38468;48.114;-1.684;2023-03-01T10:41:26;16.40;30.40
52575;DHT22;38468;48.114;-1.684;2023-03-01T10:43:32;17.00;30.00
52575;DHT22;38468;48.114;-1.684;2023-03-01T10:45:40;17.30;29.40
52575;DHT22;38468;48.114;-1.684;2023-03-01T10:47:41;16.50;30.20
52575;DHT22;38468;48.114;-1.684;2023-03-01T10:50:03;16.70;29.80
52575;DHT22;38468;48.114;-1.684;2023-03-01T10:52:20;16.60;30.40
52575;DHT22;38468;48.114;-1.684;2023-03-01T10:54:30;16.30;30.60
52575;DHT22;38468;48.114;-1.684;2023-03-01T10:56:52;16.50;29.50
52575;DHT22;38468;48.114;-1.684;2023-03-01T10:59:05;16.90;30.20
52575;DHT22;38468;48.114;-1.684;2023-03-01T11:01:24;16.90;29.80
52575;DHT22;38468;48.114;-1.684;2023-03-01T11:03:36;16.50;30.60
52575;DHT22;38468;48.114;-1.684;2023-03-01T11:05:37;16.60;30.60
52575;DHT22;38468;48.114;-1.684;2023-03-01T11:07:52;16.50;30.90
52575;DHT22;38468;48.114;-1.684;2023-03-01T11:09:54;16.50;30.50
52575;DHT22;38468;48.114;-1.684;2023-03-01T11:11:57;16.50;31.00
52575;DHT22;38468;48.114;-1.684;2023-03-01T11:14:20;16.10;31.40
52575;DHT22;38468;48.114;-1.684;2023-03-01T11:18:31;17.10;30.70
52575;DHT22;38468;48.114;-1.684;2023-03-01T11:20:35;16.80;30.60
52575;DHT22;38468;48.114;-1.684;2023-03-01T11:22:36;16.40;30.80
52575;DHT22;38468;48.114;-1.684;2023-03-01T11:24:41;15.80;31.40
52575;DHT22;38468;48.114;-1.684;2023-03-01T11:26:51;15.50;31.60
52575;DHT22;38468;48.114;-1.684;2023-03-01T11:28:55;15.70;32.30
52575;DHT22;38468;48.114;-1.684;2023-03-01T11:33:23;14.70;33.30
52575;DHT22;38468;48.114;-1.684;2023-03-01T11:35:26;14.50;33.50
52575;DHT22;38468;48.114;-1.684;2023-03-01T11:40:24;14.10;34.30
52575;DHT22;38468;48.114;-1.684;2023-03-01T11:44:52;13.30;36.00
52575;DHT22;38468;48.114;-1.684;2023-03-01T11:56:34;13.20;36.50
52575;DHT22;38468;48.114;-1.684;2023-03-01T12:01:32;13.50;35.90
52575;DHT22;38468;48.114;-1.684;2023-03-01T12:08:23;13.10;35.20
52575;DHT22;38468;48.114;-1.684;2023-03-01T12:12:45;13.50;35.30
52575;DHT22;38468;48.114;-1.684;2023-03-01T12:26:35;15.70;33.00
52575;DHT22;38468;48.114;-1.684;2023-03-01T12:40:23;16.50;30.90
52575;DHT22;38468;48.114;-1.684;2023-03-01T12:49:49;17.00;29.40
52575;DHT22;38468;48.114;-1.684;2023-03-01T12:53:59;17.20;29.00
52575;DHT22;38468;48.114;-1.684;2023-03-01T12:56:06;17.30;28.90
52575;DHT22;38468;48.114;-1.684;2023-03-01T12:58:33;17.40;28.70
52575;DHT22;38468;48.114;-1.684;2023-03-01T13:06:08;17.70;28.10
52575;DHT22;38468;48.114;-1.684;2023-03-01T13:08:50;17.50;27.40
52575;DHT22;38468;48.114;-1.684;2023-03-01T13:11:02;17.40;27.80
52575;DHT22;38468;48.114;-1.684;2023-03-01T13:13:18;17.80;28.50
52575;DHT22;38468;48.114;-1.684;2023-03-01T13:17:31;17.80;28.20
52575;DHT22;38468;48.114;-1.684;2023-03-01T13:19:32;18.00;27.40
52575;DHT22;38468;48.114;-1.684;2023-03-01T13:21:33;17.90;27.90
52575;DHT22;38468;48.114;-1.684;2023-03-01T13:23:39;18.30;27.10
52575;DHT22;38468;48.114;-1.684;2023-03-01T13:26:16;18.00;27.00
52575;DHT22;38468;48.114;-1.684;2023-03-01T13:28:39;18.30;26.90
52575;DHT22;38468;48.114;-1.684;2023-03-01T13:30:42;18.10;27.10
52575;DHT22;38468;48.114;-1.684;2023-03-01T13:32:42;18.40;27.20
52575;DHT22;38468;48.114;-1.684;2023-03-01T13:34:45;18.50;27.50
52575;DHT22;38468;48.114;-1.684;2023-03-01T13:36:48;19.00;26.40
52575;DHT22;38468;48.114;-1.684;2023-03-01T13:40:56;18.70;26.90
52575;DHT22;38468;48.114;-1.684;2023-03-01T13:43:28;18.90;26.50
52575;DHT22;38468;48.114;-1.684;2023-03-01T13:45:43;18.50;26.70
52575;DHT22;38468;48.114;-1.684;2023-03-01T13:47:45;18.70;26.20
52575;DHT22;38468;48.114;-1.684;2023-03-01T13:49:55;18.50;27.00
52575;DHT22;38468;48.114;-1.684;2023-03-01T13:51:57;18.50;27.10
52575;DHT22;38468;48.114;-1.684;2023-03-01T13:53:59;18.50;26.70
52575;DHT22;38468;48.114;-1.684;2023-03-01T13:58:23;18.20;27.20
52575;DHT22;38468;48.114;-1.684;2023-03-01T14:00:38;18.00;27.40
52575;DHT22;38468;48.114;-1.684;2023-03-01T14:02:38;18.40;27.20
52575;DHT22;38468;48.114;-1.684;2023-03-01T14:04:41;18.50;27.10
52575;DHT22;38468;48.114;-1.684;2023-03-01T14:06:42;17.80;26.90
52575;DHT22;38468;48.114;-1.684;2023-03-01T14:08:44;17.50;28.10
52575;DHT22;38468;48.114;-1.684;2023-03-01T14:13:17;17.60;28.20
52575;DHT22;38468;48.114;-1.684;2023-03-01T14:15:22;17.50;28.30
52575;DHT22;38468;48.114;-1.684;2023-03-01T14:19:29;17.40;28.20
52575;DHT22;38468;48.114;-1.684;2023-03-01T14:21:31;17.30;28.40
52575;DHT22;38468;48.114;-1.684;2023-03-01T14:23:32;17.00;29.10
52575;DHT22;38468;48.114;-1.684;2023-03-01T14:25:36;16.90;29.70
52575;DHT22;38468;48.114;-1.684;2023-03-01T14:27:39;17.10;29.60
52575;DHT22;38468;48.114;-1.684;2023-03-01T14:29:42;16.70;29.80